Time;durP1;ratioP1;P1;durP2;ratioP2;P2;SDS_P1;SDS_P2;PMS_P1;PMS_P2;Temp;Humidity;BMP_temperature;BMP_pressure;BME280_temperature;BME280_humidity;BME280_pressure;Samples;Min_cycle;Max_cycle;Signal;HPM_P1;HPM_P2
2022/05/08 00:02:01;;;;;;;4.95;2.97;;;;;;;5.97;86.10;97560.78;5027084;28;20053;-61
2022/05/08 00:04:28;;;;;;;5.25;2.95;;;;;;;6.11;84.88;97575.13;5027147;28;20049;-60
2022/05/08 00:06:55;;;;;;;8.25;3.90;;;;;;;6.28;85.26;97599.00;5027188;28;20481;-62
2022/05/08 00:09:22;;;;;;;7.60;2.97;;;;;;;6.25;84.23;97588.66;5025879;28;20056;-60
2022/05/08 00:11:48;;;;;;;9.02;4.18;;;;;;;6.23;84.31;97585.47;5027262;28;20068;-63
2022/05/08 00:14:15;;;;;;;8.98;2.55;;;;;;;6.30;84.74;97583.81;5026948;28;20058;-61
2022/05/08 00:16:41;;;;;;;6.97;3.08;;;;;;;6.38;84.26;97590.41;5037479;28;20412;-63
2022/05/08 00:19:08;;;;;;;6.93;3.20;;;;;;;6.03;84.24;97553.97;5045209;28;20124;-60
2022/05/08 00:21:35;;;;;;;8.27;2.60;;;;;;;6.07;85.58;97587.91;5045086;28;20056;-62
2022/05/08 00:24:02;;;;;;;6.60;3.22;;;;;;;6.05;85.55;97584.69;5046461;28;20439;-60
2022/05/08 00:26:28;;;;;;;5.78;2.40;;;;;;;5.98;85.67;97585.19;5046756;28;20064;-61
2022/05/08 00:28:55;;;;;;;7.35;2.83;;;;;;;5.91;85.62;97584.09;5044946;28;20534;-60
2022/05/08 00:31:23;;;;;;;5.90;3.03;;;;;;;5.81;87.59;97595.38;5046554;28;20067;-60
2022/05/08 00:33:51;;;;;;;4.78;2.40;;;;;;;5.83;87.40;97590.41;5044946;28;20115;-60
2022/05/08 00:36:18;;;;;;;9.05;2.88;;;;;;;6.03;86.07;97589.72;5044780;28;20061;-59
2022/05/08 00:38:45;;;;;;;6.15;2.40;;;;;;;6.04;86.13;97594.88;5046306;28;20368;-62
2022/05/08 00:41:12;;;;;;;7.43;2.33;;;;;;;6.10;85.39;97592.78;5045090;28;20052;-60
2022/05/08 00:43:40;;;;;;;5.30;2.47;;;;;;;5.72;85.60;97542.38;5046598;28;20049;-61
2022/05/08 00:46:14;;;;;;;7.57;2.80;;;;;;;5.69;85.38;97537.53;5044896;28;20086;-61
2022/05/08 00:48:41;;;;;;;6.10;2.80;;;;;;;5.74;86.58;97584.06;5046140;28;20049;-61
2022/05/08 00:51:10;;;;;;;6.78;2.80;;;;;;;5.69;86.41;97559.53;5045970;28;20447;-60
2022/05/08 00:53:46;;;;;;;5.80;2.42;;;;;;;5.92;85.28;97585.69;5046127;28;20576;-59
2022/05/08 00:56:14;;;;;;;7.60;2.90;;;;;;;5.82;86.08;97586.03;5046225;28;20067;-62
2022/05/08 00:58:43;;;;;;;6.82;2.90;;;;;;;5.19;86.48;97492.53;5045231;28;20506;-60
2022/05/08 01:01:10;;;;;;;6.00;2.50;;;;;;;5.68;86.66;97568.88;5046159;28;20048;-60
2022/05/08 01:03:38;;;;;;;6.43;2.78;;;;;;;5.80;86.41;97588.28;5045498;28;20056;-60
2022/05/08 01:06:07;;;;;;;6.68;2.63;;;;;;;5.54;87.78;97568.25;5045421;28;20057;-62
2022/05/08 01:08:36;;;;;;;5.97;2.78;;;;;;;5.61;87.86;97576.84;5045820;28;20139;-59
2022/05/08 01:11:05;;;;;;;7.05;2.70;;;;;;;5.55;87.69;97580.88;5043697;28;20060;-62
2022/05/08 01:13:32;;;;;;;7.10;3.15;;;;;;;5.60;86.79;97578.78;5045678;28;20057;-59
2022/05/08 01:15:59;;;;;;;10.18;2.53;;;;;;;5.69;87.46;97587.00;5044073;28;20558;-60
2022/05/08 01:18:26;;;;;;;5.88;2.35;;;;;;;5.47;87.25;97587.19;5043968;28;20057;-60
2022/05/08 01:20:52;;;;;;;8.77;2.88;;;;;;;5.37;88.30;97579.28;5045447;28;20515;-59
2022/05/08 01:23:21;;;;;;;6.13;2.70;;;;;;;5.32;88.65;97582.19;5045243;28;20069;-59
2022/05/08 01:25:51;;;;;;;7.00;2.47;;;;;;;4.97;87.92;97520.97;5045502;28;20277;-59
2022/05/08 01:28:19;;;;;;;5.95;2.30;;;;;;;5.25;90.03;97581.88;5045824;28;20045;-60
2022/05/08 01:30:48;;;;;;;9.05;3.30;;;;;;;4.89;87.26;97507.22;5045655;28;20049;-61
2022/05/08 01:33:15;;;;;;;6.50;2.50;;;;;;;5.22;87.45;97566.81;5045203;28;20569;-61
2022/05/08 01:35:42;;;;;;;5.32;2.38;;;;;;;5.02;87.23;97528.22;5045286;28;20052;-60
2022/05/08 01:38:11;;;;;;;7.20;3.00;;;;;;;5.30;86.63;97581.69;5043779;28;20049;-60
2022/05/08 01:40:38;;;;;;;6.32;2.35;;;;;;;5.39;87.62;97579.75;5043996;28;20056;-60
2022/05/08 01:43:05;;;;;;;6.32;3.25;;;;;;;5.42;87.67;97584.59;5045138;28;20049;-61
2022/05/08 01:45:33;;;;;;;8.95;3.42;;;;;;;5.19;87.87;97581.22;5045183;28;20045;-61
2022/05/08 01:50:46;;;;;;;7.80;2.88;;;;;;;5.32;87.73;97566.50;5045138;28;20439;-63
2022/05/08 01:53:12;;;;;;;5.55;2.10;;;;;;;5.23;88.20;97579.41;5044811;28;20049;-63
2022/05/08 01:55:39;;;;;;;5.97;2.60;;;;;;;5.12;89.31;97588.31;5044837;28;20063;-64
2022/05/08 01:58:06;;;;;;;6.20;2.55;;;;;;;5.15;88.43;97560.22;5044922;28;20059;-65
2022/05/08 02:00:32;;;;;;;4.43;1.92;;;;;;;5.35;87.31;97587.03;5044218;28;20459;-63
2022/05/08 02:03:01;;;;;;;4.68;2.35;;;;;;;5.29;87.49;97589.13;5043817;28;20049;-63
2022/05/08 02:05:28;;;;;;;5.75;2.78;;;;;;;5.31;87.41;97583.31;5042884;28;20045;-64
2022/05/08 02:07:56;;;;;;;8.68;3.28;;;;;;;5.23;87.51;97584.13;5044595;28;20045;-64
2022/05/08 02:10:23;;;;;;;7.60;2.72;;;;;;;5.01;87.64;97537.59;5044185;28;20044;-63
2022/05/08 02:12:50;;;;;;;6.60;3.00;;;;;;;4.49;86.75;97460.72;5042785;28;20059;-64
2022/05/08 02:15:17;;;;;;;6.38;2.78;;;;;;;4.65;87.58;97524.97;5042162;28;20590;-63
2022/05/08 02:17:43;;;;;;;7.70;2.50;;;;;;;5.16;87.83;97583.78;5039121;28;20056;-62
2022/05/08 02:20:11;;;;;;;12.25;3.08;;;;;;;5.08;89.00;97592.81;5023018;28;20054;-63
2022/05/08 02:22:38;;;;;;;3.83;2.25;;;;;;;3.44;87.77;97329.59;5024276;28;20072;-63
2022/05/08 02:25:06;;;;;;;11.88;2.60;;;;;;;4.91;88.54;97588.13;5024489;28;20049;-64
2022/05/08 02:27:41;;;;;;;10.95;2.17;;;;;;;4.99;89.39;97589.25;5024426;28;20053;-63
2022/05/08 02:30:10;;;;;;;7.32;2.10;;;;;;;4.91;89.55;97588.13;5024313;28;20049;-63
2022/05/08 02:32:38;;;;;;;5.95;2.65;;;;;;;4.68;91.12;97592.91;5024201;28;20508;-63
2022/05/08 02:35:06;;;;;;;5.78;2.85;;;;;;;4.76;91.45;97579.56;5024438;28;20146;-62
2022/05/08 02:37:33;;;;;;;5.57;2.92;;;;;;;4.50;90.36;97543.81;5023257;28;20064;-63
2022/05/08 02:40:00;;;;;;;5.45;2.85;;;;;;;4.37;91.08;97520.88;5023981;28;20111;-64
2022/05/08 02:42:28;;;;;;;9.65;2.58;;;;;;;4.87;90.48;97587.13;5023908;28;20049;-63
2022/05/08 02:44:55;;;;;;;4.95;2.60;;;;;;;4.74;90.04;97576.31;5022748;28;20057;-63
2022/05/08 02:47:22;;;;;;;5.05;2.60;;;;;;;4.83;90.95;97579.88;5023654;28;20053;-63
2022/05/08 02:49:48;;;;;;;5.75;2.60;;;;;;;4.86;90.02;97579.22;5023128;28;20414;-63
2022/05/08 02:52:15;;;;;;;5.05;2.15;;;;;;;4.31;90.02;97535.06;5023952;28;20096;-63
2022/05/08 02:54:42;;;;;;;8.48;2.55;;;;;;;4.73;90.59;97574.72;5023589;28;20061;-62
2022/05/08 02:59:53;;;;;;;4.10;2.30;;;;;;;4.08;90.95;97481.41;5023724;28;20549;-63
2022/05/08 03:02:20;;;;;;;6.65;3.00;;;;;;;4.61;89.53;97578.88;5038933;28;20067;-63
2022/05/08 03:04:47;;;;;;;7.32;3.80;;;;;;;4.61;87.65;97578.88;5023538;28;20147;-64
2022/05/08 03:07:13;;;;;;;10.65;4.78;;;;;;;4.50;87.68;97583.00;5023590;28;20058;-62
2022/05/08 03:09:40;;;;;;;10.30;4.13;;;;;;;4.40;91.12;97587.97;5022166;28;20061;-64
2022/05/08 03:12:08;;;;;;;8.13;4.07;;;;;;;4.29;90.84;97554.56;5024462;28;20053;-63
2022/05/08 03:14:34;;;;;;;8.60;3.75;;;;;;;4.35;89.88;97563.44;5022572;28;20049;-63
2022/05/08 03:17:01;;;;;;;8.60;3.75;;;;;;;4.65;90.70;97595.47;5023404;28;20053;-63
2022/05/08 03:19:29;;;;;;;8.93;3.58;;;;;;;4.73;90.34;97596.66;5023597;28;20057;-64
2022/05/08 03:21:55;;;;;;;5.47;2.80;;;;;;;4.62;90.59;97591.44;5022142;28;20045;-63
2022/05/08 03:24:22;;;;;;;4.47;2.72;;;;;;;4.01;89.17;97479.16;5023227;28;20061;-63
2022/05/08 03:26:49;;;;;;;6.20;2.70;;;;;;;4.29;88.93;97538.13;5022817;28;20068;-62
2022/05/08 03:29:15;;;;;;;6.70;2.80;;;;;;;3.80;89.10;97519.22;5028264;28;20058;-63
2022/05/08 03:31:43;;;;;;;8.27;2.88;;;;;;;4.58;89.17;97593.19;5026335;28;20050;-63
2022/05/08 03:34:10;;;;;;;6.88;2.55;;;;;;;4.62;88.94;97591.44;5027633;28;20132;-62
2022/05/08 03:36:37;;;;;;;8.45;3.08;;;;;;;4.85;86.79;97591.34;5027644;28;20072;-64
2022/05/08 03:39:03;;;;;;;7.50;2.75;;;;;;;4.47;86.94;97545.25;5027138;28;20049;-63
2022/05/08 03:41:30;;;;;;;5.88;2.83;;;;;;;4.75;87.96;97588.88;5027747;28;20061;-63
2022/05/08 03:43:57;;;;;;;6.55;2.58;;;;;;;4.84;88.82;97592.47;5028048;28;20479;-63
2022/05/08 03:46:25;;;;;;;5.30;3.00;;;;;;;4.85;88.71;97594.09;5026105;28;20498;-63
2022/05/08 03:48:51;;;;;;;6.47;2.65;;;;;;;4.91;87.91;97593.63;5027289;28;20471;-62
2022/05/08 03:51:18;;;;;;;6.07;2.90;;;;;;;4.89;87.04;97578.59;5025354;28;20057;-63
2022/05/08 03:53:45;;;;;;;7.72;2.78;;;;;;;5.01;87.45;97587.81;5026985;28;20045;-62
2022/05/08 03:56:11;;;;;;;6.75;3.60;;;;;;;4.85;86.84;97577.63;5027285;28;20079;-63
2022/05/08 03:58:38;;;;;;;9.05;3.13;;;;;;;5.30;85.63;97584.44;5027765;28;20053;-62
2022/05/08 04:01:05;;;;;;;6.63;3.05;;;;;;;5.27;85.21;97585.91;5027052;28;20049;-64
2022/05/08 04:03:31;;;;;;;10.13;4.25;;;;;;;5.43;84.51;97588.97;5027258;28;20053;-63
2022/05/08 04:05:59;;;;;;;13.63;4.60;;;;;;;5.02;85.82;97545.50;5027048;28;20054;-62
2022/05/08 04:08:25;;;;;;;9.45;4.65;;;;;;;5.53;85.58;97597.66;5025190;28;20424;-62
2022/05/08 04:10:52;;;;;;;8.20;4.50;;;;;;;5.66;84.52;97593.94;5027368;28;20061;-63
2022/05/08 04:13:19;;;;;;;7.43;3.45;;;;;;;5.83;82.78;97598.66;5025771;28;20096;-62
2022/05/08 04:18:31;;;;;;;7.90;3.38;;;;;;;5.89;81.62;97561.59;5026745;28;20049;-63
2022/05/08 04:20:58;;;;;;;9.05;3.95;;;;;;;6.26;81.55;97602.09;5026545;28;20053;-62
2022/05/08 04:26:10;;;;;;;5.88;3.33;;;;;;;6.37;79.98;97520.81;5026591;28;20142;-63
2022/05/08 04:28:36;;;;;;;7.28;2.70;;;;;;;6.90;78.99;97595.31;5026793;28;20064;-64
2022/05/08 04:31:03;;;;;;;5.72;3.05;;;;;;;6.94;79.94;97593.50;5026688;28;20061;-63
2022/05/08 04:33:30;;;;;;;8.25;3.20;;;;;;;7.00;80.38;97596.88;5026084;28;20060;-63
2022/05/08 04:35:56;;;;;;;6.57;3.08;;;;;;;7.02;80.59;97592.66;5026335;28;20115;-63
2022/05/08 04:38:23;;;;;;;6.95;2.88;;;;;;;7.24;80.48;97595.09;5024251;28;20409;-63
2022/05/08 04:40:50;;;;;;;11.68;3.45;;;;;;;7.42;80.63;97581.97;5024802;28;20080;-63
2022/05/08 04:43:16;;;;;;;10.27;4.18;;;;;;;7.48;80.93;97588.91;5025063;28;20049;-64
2022/05/08 04:45:43;;;;;;;7.53;3.92;;;;;;;7.74;79.75;97592.25;5026435;28;20049;-64
2022/05/08 04:48:09;;;;;;;8.40;4.15;;;;;;;7.85;78.30;97578.84;5026146;28;20062;-65
2022/05/08 04:50:37;;;;;;;13.80;4.88;;;;;;;8.03;78.66;97588.56;5024668;28;20053;-64
2022/05/08 04:53:04;;;;;;;10.00;5.05;;;;;;;8.10;78.05;97594.31;5025989;28;20508;-64
2022/05/08 04:55:31;;;;;;;9.63;5.22;;;;;;;8.22;78.30;97591.59;5025731;28;20049;-65
2022/05/08 04:57:58;;;;;;;8.77;4.25;;;;;;;8.43;75.96;97573.03;5024890;28;20057;-64
2022/05/08 05:00:26;;;;;;;9.07;4.75;;;;;;;7.52;75.67;97422.50;5025874;28;20068;-65
2022/05/08 05:02:53;;;;;;;10.40;4.72;;;;;;;8.82;76.05;97577.91;5026116;28;20057;-64
2022/05/08 05:05:20;;;;;;;8.35;3.63;;;;;;;9.00;74.92;97573.72;5024489;28;20050;-64
2022/05/08 05:07:46;;;;;;;7.95;3.83;;;;;;;8.88;74.10;97546.91;5024430;28;20050;-65
2022/05/08 05:10:13;;;;;;;8.25;4.05;;;;;;;8.94;74.14;97531.72;5025755;28;20052;-65
2022/05/08 05:12:40;;;;;;;9.15;4.30;;;;;;;9.21;73.38;97546.75;5025982;28;20056;-63
2022/05/08 05:15:07;;;;;;;7.68;3.88;;;;;;;9.38;71.73;97543.69;5025738;28;20136;-64
2022/05/08 05:17:35;;;;;;;14.68;4.40;;;;;;;9.58;71.16;97577.88;5025392;28;20053;-60
2022/05/08 05:20:03;;;;;;;7.15;4.00;;;;;;;9.81;71.18;97596.34;5025555;28;20060;-62
2022/05/08 05:22:30;;;;;;;7.05;3.88;;;;;;;9.86;70.69;97579.50;5025104;28;20045;-64
2022/05/08 05:24:57;;;;;;;9.85;4.57;;;;;;;9.41;70.58;97484.94;5025628;28;20049;-61
2022/05/08 05:27:25;;;;;;;6.13;3.65;;;;;;;9.76;69.21;97488.69;5025173;28;20057;-61
2022/05/08 05:29:52;;;;;;;7.38;3.72;;;;;;;10.16;69.19;97511.53;5025842;28;20049;-62
2022/05/08 05:32:19;;;;;;;11.15;4.28;;;;;;;10.41;67.97;97540.69;5025440;28;20058;-61
2022/05/08 05:34:46;;;;;;;9.65;4.47;;;;;;;10.57;66.94;97530.38;5025391;28;20455;-63
2022/05/08 05:37:12;;;;;;;9.38;4.13;;;;;;;11.05;66.58;97578.25;5025050;28;20068;-61
2022/05/08 05:39:39;;;;;;;8.48;3.42;;;;;;;11.18;65.69;97574.19;5040256;28;20056;-62
2022/05/08 05:42:06;;;;;;;7.68;3.22;;;;;;;10.96;67.10;97533.28;5024928;28;20057;-60
2022/05/08 05:44:32;;;;;;;6.20;3.55;;;;;;;11.34;67.08;97570.22;5025227;28;20137;-61
2022/05/08 05:49:44;;;;;;;7.80;3.47;;;;;;;10.48;73.03;97568.53;5024468;28;20053;-60
2022/05/08 05:52:11;;;;;;;10.57;3.92;;;;;;;10.90;71.49;97574.34;5024098;28;20053;-62
2022/05/08 05:54:37;;;;;;;6.47;3.13;;;;;;;10.29;73.26;97521.34;5024757;28;20084;-60
2022/05/08 05:57:04;;;;;;;9.85;3.78;;;;;;;10.76;72.76;97570.41;5024716;28;20061;-63
2022/05/08 05:59:31;;;;;;;6.50;2.55;;;;;;;10.71;71.85;97505.00;5025447;28;20053;-61
2022/05/08 06:02:05;;;;;;;8.00;4.45;;;;;;;11.19;70.90;97531.44;5025093;28;20098;-61
2022/05/08 06:04:32;;;;;;;7.13;3.10;;;;;;;11.17;70.22;97517.13;5024498;28;20451;-61
2022/05/08 06:06:59;;;;;;;5.90;3.67;;;;;;;11.43;68.51;97503.47;5023018;28;20071;-62
2022/05/08 06:09:26;;;;;;;7.05;3.13;;;;;;;11.24;69.92;97495.91;5024354;28;20586;-61
2022/05/08 06:11:53;;;;;;;8.57;3.28;;;;;;;12.01;67.20;97541.91;5024830;28;20160;-60
2022/05/08 06:14:20;;;;;;;6.72;3.22;;;;;;;12.37;65.97;97560.06;5023519;28;20049;-60
2022/05/08 06:16:46;;;;;;;7.53;3.47;;;;;;;12.59;65.29;97561.25;5024539;28;20057;-62
2022/05/08 06:19:13;;;;;;;5.70;3.08;;;;;;;12.67;64.31;97563.78;5024691;28;20120;-63
2022/05/08 06:21:40;;;;;;;6.57;3.03;;;;;;;13.10;62.39;97563.31;5022637;28;20053;-61
2022/05/08 06:24:07;;;;;;;7.63;3.13;;;;;;;13.37;60.75;97556.56;5023880;28;20053;-61
2022/05/08 06:26:33;;;;;;;5.38;2.75;;;;;;;13.60;59.97;97567.63;5024528;28;20053;-60
2022/05/08 06:29:00;;;;;;;8.15;3.17;;;;;;;13.83;58.61;97559.97;5022686;28;20057;-61
2022/05/08 06:31:27;;;;;;;9.68;3.45;;;;;;;13.55;57.76;97493.59;5024411;28;20057;-64
2022/05/08 06:33:55;;;;;;;3.95;2.47;;;;;;;14.09;55.10;97556.28;5023709;28;20056;-63
2022/05/08 06:36:22;;;;;;;4.38;2.95;;;;;;;14.13;54.06;97557.16;5039149;28;20068;-60
2022/05/08 06:38:48;;;;;;;4.72;3.05;;;;;;;14.16;55.39;97562.78;5024049;28;20435;-60
2022/05/08 06:41:15;;;;;;;4.10;2.33;;;;;;;14.32;53.93;97565.38;5022611;28;20062;-61
2022/05/08 06:43:42;;;;;;;5.22;2.95;;;;;;;14.13;52.82;97505.00;5024295;28;20057;-61
2022/05/08 06:46:08;;;;;;;7.35;2.80;;;;;;;14.46;53.81;97554.34;5024049;28;20129;-61
2022/05/08 06:48:35;;;;;;;4.60;2.80;;;;;;;14.47;52.10;97559.53;5024053;28;20106;-63
2022/05/08 06:51:03;;;;;;;5.00;2.53;;;;;;;14.36;50.95;97580.94;5024171;28;20056;-60
2022/05/08 06:53:31;;;;;;;4.50;2.47;;;;;;;14.19;51.76;97550.88;5015372;28;20148;-60
2022/05/08 06:55:58;;;;;;;5.45;2.60;;;;;;;13.44;53.55;97473.19;5039016;28;20111;-61
2022/05/08 06:58:24;;;;;;;6.45;3.15;;;;;;;13.72;54.06;97508.13;5023997;28;20060;-61
2022/05/08 07:03:37;;;;;;;8.07;2.70;;;;;;;14.53;53.29;97540.47;5023491;28;20132;-62
2022/05/08 07:06:04;;;;;;;7.80;2.95;;;;;;;14.79;52.97;97537.53;5023376;28;20057;-59
2022/05/08 07:08:30;;;;;;;5.05;2.50;;;;;;;15.03;51.28;97537.72;5022077;28;20064;-59
2022/05/08 07:10:57;;;;;;;6.63;2.80;;;;;;;15.12;50.35;97542.97;5023986;28;20057;-63
2022/05/08 07:13:26;;;;;;;5.28;2.58;;;;;;;15.04;49.74;97519.00;5021983;28;20060;-63
2022/05/08 07:15:53;;;;;;;6.50;2.50;;;;;;;15.31;49.06;97539.91;5023603;28;20087;-61
2022/05/08 07:18:26;;;;;;;9.75;3.00;;;;;;;15.47;49.13;97543.25;5009688;28;20049;-62
2022/05/08 07:20:52;;;;;;;9.48;2.60;;;;;;;15.63;48.96;97535.38;5004002;28;20062;-61
2022/05/08 07:23:20;;;;;;;8.52;3.35;;;;;;;15.69;48.30;97496.66;5003538;28;20085;-61
2022/05/08 07:25:47;;;;;;;4.22;3.00;;;;;;;16.10;48.85;97535.16;5003677;28;20072;-60
2022/05/08 07:28:13;;;;;;;8.07;3.85;;;;;;;16.29;48.51;97540.41;5003990;28;20056;-62
2022/05/08 07:30:40;;;;;;;5.28;2.58;;;;;;;16.43;47.90;97536.84;5003952;28;20066;-60
2022/05/08 07:33:07;;;;;;;7.38;3.33;;;;;;;16.42;46.96;97538.81;5003867;28;20092;-64
2022/05/08 07:38:25;;;;;;;4.97;2.45;;;;;;;15.82;47.34;97532.22;5003545;28;20296;-59
2022/05/08 07:40:59;;;;;;;4.95;2.63;;;;;;;16.04;46.92;97500.41;5003636;28;20068;-59
2022/05/08 07:43:26;;;;;;;8.50;2.55;;;;;;;16.61;46.02;97530.09;5004078;28;20077;-60
2022/05/08 07:45:52;;;;;;;12.65;3.45;;;;;;;16.89;45.51;97534.13;5003620;28;20076;-61
2022/05/08 07:48:19;;;;;;;4.32;2.60;;;;;;;16.82;45.91;97534.91;5003151;28;20046;-59
2022/05/08 07:50:46;;;;;;;6.43;2.83;;;;;;;16.39;46.52;97548.00;5003802;28;20497;-61
2022/05/08 07:53:18;;;;;;;8.23;2.95;;;;;;;16.60;45.92;97536.91;5003452;28;20073;-60
2022/05/08 07:55:51;;;;;;;6.60;2.80;;;;;;;14.50;46.15;97231.81;5003515;28;20509;-63
2022/05/08 07:58:20;;;;;;;8.10;2.65;;;;;;;16.87;46.12;97530.91;5003275;28;20057;-61
2022/05/08 08:00:53;;;;;;;4.43;2.45;;;;;;;17.17;43.70;97534.09;5003213;28;20057;-60
2022/05/08 08:03:22;;;;;;;5.15;2.10;;;;;;;16.71;43.69;97491.34;5003274;28;20058;-59
2022/05/08 08:05:48;;;;;;;4.82;2.85;;;;;;;16.90;44.15;97530.13;5003120;28;20054;-59
2022/05/08 08:08:33;;;;;;;4.50;2.83;;;;;;;15.90;45.69;97427.69;5003472;28;20432;-59
2022/05/08 08:11:03;;;;;;;6.13;2.85;;;;;;;17.13;44.51;97538.91;5003278;28;20045;-63
2022/05/08 08:13:32;;;;;;;4.78;3.03;;;;;;;17.48;44.63;97533.28;5003405;28;20690;-61
2022/05/08 08:16:00;;;;;;;7.07;3.05;;;;;;;17.84;43.77;97537.59;5006837;28;20062;-59
2022/05/08 08:18:27;;;;;;;4.40;3.10;;;;;;;17.53;44.31;97530.09;5020370;28;20152;-60
2022/05/08 08:20:54;;;;;;;8.07;2.85;;;;;;;17.19;44.50;97475.69;5026372;28;20516;-60
2022/05/08 08:23:22;;;;;;;4.95;2.72;;;;;;;17.64;44.70;97502.84;5026322;28;20053;-61
2022/05/08 08:25:48;;;;;;;4.53;2.67;;;;;;;17.74;45.00;97514.00;5026380;28;20061;-60
2022/05/08 08:28:15;;;;;;;5.20;3.15;;;;;;;18.18;44.05;97527.41;5026676;28;20053;-62
2022/05/08 08:30:42;;;;;;;9.48;3.53;;;;;;;18.42;43.66;97529.34;5026760;28;20050;-59
2022/05/08 08:33:09;;;;;;;8.57;3.03;;;;;;;17.73;44.39;97522.81;5026280;28;20053;-60
2022/05/08 08:35:36;;;;;;;5.88;3.80;;;;;;;18.06;43.56;97519.47;5025213;28;20550;-60
2022/05/08 08:38:07;;;;;;;4.18;2.40;;;;;;;17.17;45.01;97522.91;5026107;28;20431;-60
2022/05/08 08:40:40;;;;;;;7.35;2.90;;;;;;;16.95;45.61;97487.72;5026377;28;20053;-61
2022/05/08 08:43:09;;;;;;;4.87;2.90;;;;;;;17.26;45.28;97458.91;5026383;28;20124;-60
2022/05/08 08:48:25;;;;;;;6.80;2.65;;;;;;;17.98;44.36;97523.50;5026661;28;20448;-59
2022/05/08 08:50:53;;;;;;;3.00;2.20;;;;;;;18.09;44.35;97513.06;5026212;28;20561;-59
2022/05/08 08:53:20;;;;;;;4.35;2.92;;;;;;;17.92;45.22;97520.31;5024437;28;20456;-59
2022/05/08 08:55:50;;;;;;;3.75;2.35;;;;;;;18.37;43.72;97506.50;5026205;28;20072;-59
2022/05/08 08:58:18;;;;;;;5.35;3.13;;;;;;;18.44;42.38;97501.66;5025568;28;20056;-59
2022/05/08 09:00:49;;;;;;;4.47;3.00;;;;;;;17.98;44.86;97485.06;5025659;28;20057;-59
2022/05/08 09:03:28;;;;;;;8.18;3.20;;;;;;;18.67;43.47;97481.47;5025990;28;20065;-65
2022/05/08 09:05:56;;;;;;;4.90;2.33;;;;;;;18.51;42.22;97500.84;5026156;28;20518;-65
2022/05/08 09:08:30;;;;;;;5.50;3.17;;;;;;;18.70;42.17;97487.03;5025849;28;20083;-65
2022/05/08 09:10:58;;;;;;;3.88;1.92;;;;;;;18.56;42.12;97456.28;5025676;28;20133;-64
2022/05/08 09:13:29;;;;;;;4.38;2.83;;;;;;;18.66;42.05;97469.44;5025541;28;20508;-64
2022/05/08 09:16:07;;;;;;;5.07;3.28;;;;;;;18.93;41.86;97484.47;5025429;28;20056;-64
2022/05/08 09:18:47;;;;;;;5.80;3.70;;;;;;;18.91;43.42;97492.50;5025460;28;20061;-63
2022/05/08 09:24:13;;;;;;;7.70;3.00;;;;;;;18.94;41.79;97488.84;5025566;28;20057;-64
2022/05/08 09:26:41;;;;;;;5.15;3.50;;;;;;;19.24;41.47;97452.44;5025331;28;20088;-65
2022/05/08 09:29:19;;;;;;;4.50;2.65;;;;;;;19.72;40.95;97490.91;5025337;28;20057;-65
2022/05/08 09:31:46;;;;;;;3.92;2.90;;;;;;;19.67;40.39;97482.91;5023827;28;20057;-66
2022/05/08 09:34:14;;;;;;;4.82;3.05;;;;;;;18.62;41.08;97451.81;5023766;28;20052;-64
2022/05/08 09:36:41;;;;;;;4.60;2.92;;;;;;;19.00;41.99;97486.41;5025394;28;20057;-64
2022/05/08 09:39:09;;;;;;;7.05;3.53;;;;;;;19.46;41.64;97462.28;5025250;28;20049;-64
2022/05/08 09:41:38;;;;;;;3.17;2.63;;;;;;;18.60;41.68;97459.88;5023937;28;20527;-65
2022/05/08 09:44:18;;;;;;;3.78;3.10;;;;;;;19.02;41.00;97476.34;5025342;28;20057;-64
2022/05/08 09:46:47;;;;;;;4.65;2.38;;;;;;;19.23;40.62;97467.72;5025413;28;20107;-65
2022/05/08 09:49:17;;;;;;;5.95;3.22;;;;;;;19.32;40.83;97461.63;5024851;28;20064;-64
2022/05/08 09:51:45;;;;;;;2.85;2.50;;;;;;;19.74;40.09;97465.97;5023880;28;20435;-64
2022/05/08 09:54:17;;;;;;;3.85;2.70;;;;;;;20.03;40.61;97462.38;5023709;28;20060;-63
2022/05/08 09:56:46;;;;;;;4.65;2.90;;;;;;;19.86;40.18;97469.03;5023874;28;20064;-65
2022/05/08 09:59:13;;;;;;;6.18;2.85;;;;;;;20.03;40.79;97467.22;5024882;28;20148;-64
2022/05/08 10:01:42;;;;;;;6.07;3.45;;;;;;;20.60;39.15;97454.75;5024828;28;20067;-64
2022/05/08 10:04:09;;;;;;;4.18;2.40;;;;;;;20.24;39.10;97464.13;5023319;28;20053;-64
2022/05/08 10:06:37;;;;;;;6.13;2.97;;;;;;;20.40;39.03;97433.34;5023157;28;20307;-65
2022/05/08 10:14:37;;;;;;;4.72;3.00;;;;;;;20.21;39.45;97383.38;5024321;28;20522;-65
2022/05/08 10:17:05;;;;;;;6.85;3.05;;;;;;;21.27;38.31;97439.53;5022752;28;20060;-64
2022/05/08 10:19:31;;;;;;;3.33;2.75;;;;;;;21.51;36.54;97432.63;5005009;28;20160;-66
2022/05/08 10:22:05;;;;;;;5.22;3.30;;;;;;;21.45;37.25;97439.97;5008483;28;20052;-66
2022/05/08 10:24:41;;;;;;;6.90;2.88;;;;;;;21.57;37.50;97436.53;5024190;28;20057;-66
2022/05/08 10:27:15;;;;;;;7.93;3.65;;;;;;;21.60;38.34;97430.03;5024445;28;20061;-67
2022/05/08 10:30:04;;;;;;;6.63;3.70;;;;;;;21.76;36.67;97432.94;5024031;28;20383;-64
2022/05/08 10:32:32;;;;;;;4.00;2.55;;;;;;;21.18;36.66;97430.06;5023732;28;20179;-64
2022/05/08 10:35:16;;;;;;;7.70;3.63;;;;;;;21.37;37.98;97427.25;5024582;28;20050;-66
2022/05/08 10:37:50;;;;;;;4.38;3.15;;;;;;;21.00;36.92;97430.38;5022470;28;20347;-64
2022/05/08 10:40:23;;;;;;;5.53;3.10;;;;;;;21.61;37.19;97414.69;5022413;28;20053;-66
2022/05/08 10:42:52;;;;;;;4.60;3.15;;;;;;;21.21;35.55;97418.72;5023853;28;20052;-65
2022/05/08 10:45:36;;;;;;;4.20;3.08;;;;;;;21.07;36.26;97418.94;5023706;28;20045;-63
2022/05/08 10:48:07;;;;;;;5.38;2.80;;;;;;;21.15;37.01;97409.16;5022201;28;20111;-66
2022/05/08 10:50:48;;;;;;;5.45;2.50;;;;;;;20.90;35.11;97414.41;5023726;28;20053;-66
2022/05/08 10:53:22;;;;;;;3.50;2.60;;;;;;;21.09;35.76;97408.06;5022617;28;20057;-66
2022/05/08 10:55:50;;;;;;;6.22;2.90;;;;;;;21.65;34.84;97404.16;5023781;28;20531;-65
2022/05/08 10:58:17;;;;;;;3.17;2.80;;;;;;;20.98;35.87;97404.63;5022410;28;20528;-65
2022/05/08 11:00:44;;;;;;;3.65;2.50;;;;;;;21.08;36.25;97329.59;5023462;28;20061;-65
2022/05/08 11:03:11;;;;;;;7.18;2.60;;;;;;;21.54;35.30;97341.53;5023641;28;20057;-65
2022/05/08 11:05:39;;;;;;;2.92;2.63;;;;;;;21.32;35.14;97357.31;5023648;28;20057;-66
2022/05/08 11:08:07;;;;;;;5.85;3.25;;;;;;;21.35;36.39;97383.81;5022352;28;20057;-65
2022/05/08 11:10:39;;;;;;;4.05;2.55;;;;;;;20.99;37.03;97355.53;5023674;28;20050;-65
2022/05/08 11:13:11;;;;;;;4.40;2.67;;;;;;;21.20;37.46;97379.69;5022377;28;20049;-65
2022/05/08 11:15:45;;;;;;;3.88;2.70;;;;;;;20.98;37.26;97387.75;5023570;28;20136;-64
2022/05/08 11:18:17;;;;;;;3.38;2.70;;;;;;;21.26;35.55;97381.56;5023780;28;20139;-65
2022/05/08 11:20:59;;;;;;;3.42;2.40;;;;;;;21.74;35.68;97372.53;5023617;28;20163;-65
2022/05/08 11:23:30;;;;;;;3.67;2.80;;;;;;;21.91;34.93;97377.81;5023706;28;20071;-63
2022/05/08 11:25:59;;;;;;;9.40;4.18;;;;;;;21.90;34.81;97370.59;5023214;28;20049;-65
2022/05/08 11:28:28;;;;;;;6.88;3.20;;;;;;;21.85;35.55;97368.28;5023350;28;20142;-65
2022/05/08 11:30:56;;;;;;;3.47;2.20;;;;;;;21.50;35.44;97357.72;5023591;28;20072;-66
2022/05/08 11:36:31;;;;;;;5.20;2.90;;;;;;;21.98;34.95;97372.03;5023571;28;20053;-66
2022/05/08 11:39:03;;;;;;;4.80;2.63;;;;;;;22.41;33.48;97360.53;5021848;28;20530;-66
2022/05/08 11:41:35;;;;;;;2.83;2.58;;;;;;;22.28;35.16;97366.06;5022016;28;20067;-64
2022/05/08 11:44:15;;;;;;;4.47;2.35;;;;;;;21.96;36.10;97357.53;5021471;28;20060;-65
2022/05/08 11:46:47;;;;;;;7.93;3.25;;;;;;;21.69;36.11;97320.25;5023564;28;20060;-66
2022/05/08 11:49:23;;;;;;;3.95;2.70;;;;;;;22.45;34.64;97349.91;5026173;28;20129;-65
2022/05/08 11:51:54;;;;;;;2.95;2.50;;;;;;;21.81;34.71;97260.38;5026038;28;20050;-65
2022/05/08 11:54:30;;;;;;;3.40;2.20;;;;;;;22.09;33.68;97299.19;5027070;28;20057;-59
2022/05/08 11:57:13;;;;;;;3.55;2.60;;;;;;;22.19;34.72;97343.28;5027141;28;20053;-60
2022/05/08 11:59:41;;;;;;;4.50;2.88;;;;;;;22.71;33.28;97336.78;5027022;28;20435;-61
2022/05/08 12:02:08;;;;;;;4.05;2.90;;;;;;;22.36;33.41;97336.44;5026919;28;20075;-61
2022/05/08 12:04:35;;;;;;;4.68;2.70;;;;;;;21.89;33.73;97244.84;5027113;28;20688;-59
2022/05/08 12:07:10;;;;;;;4.97;2.17;;;;;;;22.91;31.69;97329.00;5026688;28;20084;-58
2022/05/08 12:09:43;;;;;;;4.35;2.80;;;;;;;23.44;31.48;97331.16;5025081;28;20056;-61
2022/05/08 12:12:35;;;;;;;3.42;2.50;;;;;;;23.20;31.95;97316.47;5025301;28;20060;-60
2022/05/08 12:15:08;;;;;;;4.35;2.80;;;;;;;23.11;32.35;97324.00;5025296;28;20057;-61
2022/05/08 12:17:44;;;;;;;4.30;2.60;;;;;;;22.55;32.33;97322.69;5026736;28;20056;-60